Time;durP1;ratioP1;P1;durP2;ratioP2;P2;SDS_P1;SDS_P2;PMS_P1;PMS_P2;Temp;Humidity;BMP_temperature;BMP_pressure;BME280_temperature;BME280_humidity;BME280_pressure;Samples;Min_cycle;Max_cycle;Signal;HPM_P1;HPM_P2
2023/06/23 00:01:13;;;;;;;;;;;29.00;61.30;;;;;;5106850;27;42927;-80
2023/06/23 00:03:39;;;;;;;;;;;29.00;60.60;;;;;;5106825;27;43230;-82
2023/06/23 00:06:04;;;;;;;;;;;29.00;60.90;;;;;;5106364;27;42888;-82
2023/06/23 00:08:30;;;;;;;;;;;29.00;61.40;;;;;;5106425;27;43069;-79
2023/06/23 00:10:57;;;;;;;;;;;29.00;61.30;;;;;;5106811;27;42997;-79
2023/06/23 00:13:22;;;;;;;;;;;29.00;60.80;;;;;;5105396;27;43579;-83
2023/06/23 00:15:48;;;;;;;;;;;29.00;61.30;;;;;;5105573;27;42909;-81
2023/06/23 00:18:13;;;;;;;;;;;29.00;60.60;;;;;;5105488;27;42983;-79
2023/06/23 00:20:39;;;;;;;;;;;29.10;60.20;;;;;;5105402;27;43070;-79
2023/06/23 00:23:05;;;;;;;;;;;29.00;60.00;;;;;;5105458;27;43599;-80
2023/06/23 00:25:31;;;;;;;;;;;29.00;60.00;;;;;;5104135;27;43008;-79
2023/06/23 00:27:56;;;;;;;;;;;29.00;60.50;;;;;;5106390;27;43805;-79
2023/06/23 00:30:22;;;;;;;;;;;29.00;59.90;;;;;;5107023;27;42935;-81
2023/06/23 00:32:47;;;;;;;;;;;29.00;60.10;;;;;;5107032;27;43341;-82
2023/06/23 00:35:13;;;;;;;;;;;29.00;60.20;;;;;;5106310;27;42925;-82
2023/06/23 00:37:39;;;;;;;;;;;28.90;59.60;;;;;;5106353;27;42942;-79
2023/06/23 00:40:09;;;;;;;;;;;28.90;59.60;;;;;;5106589;27;43213;-79
2023/06/23 00:42:42;;;;;;;;;;;28.90;60.00;;;;;;5106347;27;43957;-80
2023/06/23 00:45:09;;;;;;;;;;;28.90;59.60;;;;;;5106811;27;43017;-82
2023/06/23 00:47:34;;;;;;;;;;;28.90;59.60;;;;;;5105337;27;44293;-82
2023/06/23 00:50:00;;;;;;;;;;;28.90;59.60;;;;;;5106284;27;42957;-78
2023/06/23 00:52:26;;;;;;;;;;;29.00;60.20;;;;;;5107198;27;43856;-78
2023/06/23 00:54:51;;;;;;;;;;;28.90;59.90;;;;;;5106543;27;42916;-81
2023/06/23 00:57:17;;;;;;;;;;;28.90;60.00;;;;;;5106518;27;43537;-78
2023/06/23 00:59:42;;;;;;;;;;;28.90;60.10;;;;;;5106270;27;42814;-79
2023/06/23 01:02:08;;;;;;;;;;;28.90;59.60;;;;;;5106629;27;42942;-79
2023/06/23 01:04:34;;;;;;;;;;;28.90;59.60;;;;;;5106543;27;42924;-80
2023/06/23 01:07:05;;;;;;;;;;;28.90;60.20;;;;;;5105894;27;43503;-79
2023/06/23 01:09:31;;;;;;;;;;;28.90;60.10;;;;;;5106476;27;42941;-79
2023/06/23 01:12:07;;;;;;;;;;;28.90;59.70;;;;;;5106537;27;42893;-79
2023/06/23 01:14:48;;;;;;;;;;;28.90;59.70;;;;;;5106021;27;42893;-79
2023/06/23 01:17:20;;;;;;;;;;;28.90;59.70;;;;;;5105732;27;44484;-80
2023/06/23 01:19:57;;;;;;;;;;;28.90;59.60;;;;;;5105994;27;42852;-79
2023/06/23 01:22:22;;;;;;;;;;;28.90;59.90;;;;;;5106054;27;43404;-78
2023/06/23 01:24:57;;;;;;;;;;;28.90;59.30;;;;;;5106282;27;43182;-79
2023/06/23 01:27:39;;;;;;;;;;;28.90;59.70;;;;;;5105873;27;43543;-81
2023/06/23 01:30:06;;;;;;;;;;;28.90;59.80;;;;;;5106268;27;42778;-79
2023/06/23 01:32:40;;;;;;;;;;;28.80;59.10;;;;;;5104574;27;43920;-79
2023/06/23 01:35:07;;;;;;;;;;;28.80;59.60;;;;;;5106102;27;42972;-79
2023/06/23 01:37:34;;;;;;;;;;;28.90;59.10;;;;;;5105277;27;43514;-80
2023/06/23 01:40:12;;;;;;;;;;;28.90;59.50;;;;;;5105916;27;43289;-79
2023/06/23 01:42:41;;;;;;;;;;;28.90;59.50;;;;;;5105581;27;42927;-80
2023/06/23 01:45:07;;;;;;;;;;;28.90;58.80;;;;;;5105026;27;43014;-81
2023/06/23 01:47:38;;;;;;;;;;;28.90;59.20;;;;;;5103169;27;63448;-80
2023/06/23 01:50:07;;;;;;;;;;;28.90;59.20;;;;;;5105526;27;43063;-80
2023/06/23 01:52:34;;;;;;;;;;;29.00;58.80;;;;;;5103754;27;43699;-79
2023/06/23 01:55:01;;;;;;;;;;;28.90;59.20;;;;;;5105401;27;43019;-81
2023/06/23 01:57:27;;;;;;;;;;;28.90;58.80;;;;;;5104700;27;43305;-79
2023/06/23 01:59:53;;;;;;;;;;;28.90;59.30;;;;;;5105392;27;42917;-79
2023/06/23 02:02:19;;;;;;;;;;;29.00;59.00;;;;;;5105672;27;43586;-79
2023/06/23 02:04:46;;;;;;;;;;;28.90;59.00;;;;;;5105476;27;42821;-79
2023/06/23 02:07:13;;;;;;;;;;;28.90;59.10;;;;;;5105413;27;43765;-79
2023/06/23 02:09:40;;;;;;;;;;;28.90;59.50;;;;;;5105499;27;42943;-79
2023/06/23 02:12:06;;;;;;;;;;;28.90;59.50;;;;;;5105346;27;42936;-81
2023/06/23 02:14:34;;;;;;;;;;;28.90;59.60;;;;;;5098285;27;43009;-79
2023/06/23 02:17:01;;;;;;;;;;;28.90;59.70;;;;;;5083180;27;43655;-79
2023/06/23 02:19:27;;;;;;;;;;;28.80;59.30;;;;;;5082611;28;43116;-79
2023/06/23 02:21:53;;;;;;;;;;;28.80;59.80;;;;;;5082775;28;43161;-79
2023/06/23 02:24:20;;;;;;;;;;;28.80;59.40;;;;;;5082703;27;43015;-79
2023/06/23 02:26:47;;;;;;;;;;;28.90;59.90;;;;;;5083300;28;43013;-79
2023/06/23 02:29:13;;;;;;;;;;;28.80;59.50;;;;;;5081159;28;43136;-79
2023/06/23 02:31:39;;;;;;;;;;;28.80;60.00;;;;;;5082386;28;43016;-79
2023/06/23 02:34:05;;;;;;;;;;;28.70;59.70;;;;;;5084417;28;43016;-78
2023/06/23 02:36:37;;;;;;;;;;;28.70;60.30;;;;;;5084109;28;42921;-79
2023/06/23 02:39:04;;;;;;;;;;;28.70;60.30;;;;;;5084201;28;42980;-78
2023/06/23 02:41:32;;;;;;;;;;;28.60;59.90;;;;;;5083691;28;43319;-79
2023/06/23 02:43:59;;;;;;;;;;;28.60;60.50;;;;;;5084364;28;42956;-79
2023/06/23 02:46:29;;;;;;;;;;;28.60;60.40;;;;;;5082442;27;43010;-79
2023/06/23 02:48:57;;;;;;;;;;;28.60;60.50;;;;;;5085231;27;43164;-79
2023/06/23 02:51:24;;;;;;;;;;;28.60;60.10;;;;;;5087704;28;43029;-78
2023/06/23 02:53:57;;;;;;;;;;;28.50;60.20;;;;;;5087518;28;43020;-79
2023/06/23 02:56:25;;;;;;;;;;;28.50;60.80;;;;;;5087890;28;43704;-79
2023/06/23 02:58:53;;;;;;;;;;;28.60;60.90;;;;;;5088033;28;42920;-79
2023/06/23 03:01:22;;;;;;;;;;;28.50;60.20;;;;;;5087407;28;43653;-79
2023/06/23 03:03:48;;;;;;;;;;;28.60;60.60;;;;;;5087709;28;42921;-79
2023/06/23 03:06:20;;;;;;;;;;;28.60;60.50;;;;;;5087257;28;42910;-80
2023/06/23 03:08:47;;;;;;;;;;;28.50;60.40;;;;;;5087632;28;42890;-79
2023/06/23 03:11:14;;;;;;;;;;;28.50;60.40;;;;;;5094004;27;42942;-78
2023/06/23 03:13:40;;;;;;;;;;;28.50;59.80;;;;;;5108140;27;42996;-79
2023/06/23 03:16:08;;;;;;;;;;;28.50;59.90;;;;;;5105817;27;43272;-79
2023/06/23 03:18:35;;;;;;;;;;;28.50;60.40;;;;;;5108413;27;42882;-79
2023/06/23 03:21:03;;;;;;;;;;;28.50;60.30;;;;;;5108147;27;43982;-78
2023/06/23 03:23:30;;;;;;;;;;;28.50;59.90;;;;;;5107815;27;42918;-79
2023/06/23 03:25:56;;;;;;;;;;;28.40;60.40;;;;;;5108147;27;43744;-79
2023/06/23 03:28:25;;;;;;;;;;;28.50;60.50;;;;;;5108145;27;42936;-79
2023/06/23 03:30:53;;;;;;;;;;;28.50;60.50;;;;;;5107306;27;43857;-78
2023/06/23 03:33:23;;;;;;;;;;;28.40;60.40;;;;;;5107967;27;42944;-78
2023/06/23 03:35:50;;;;;;;;;;;28.50;59.80;;;;;;5107810;27;43990;-78
2023/06/23 03:38:16;;;;;;;;;;;28.40;59.70;;;;;;5107855;27;42950;-78
2023/06/23 03:40:47;;;;;;;;;;;28.40;59.70;;;;;;5107781;27;42899;-79
2023/06/23 03:43:22;;;;;;;;;;;28.50;59.80;;;;;;5107843;27;42929;-78
2023/06/23 03:45:52;;;;;;;;;;;28.40;60.20;;;;;;5106270;27;43587;-79
2023/06/23 03:48:19;;;;;;;;;;;28.50;60.30;;;;;;5107104;27;42949;-79
2023/06/23 03:50:46;;;;;;;;;;;28.50;59.70;;;;;;5107924;27;43690;-79
2023/06/23 03:53:12;;;;;;;;;;;28.40;60.10;;;;;;5102372;27;42947;-79
2023/06/23 03:55:38;;;;;;;;;;;28.50;60.20;;;;;;5106022;27;42952;-79
2023/06/23 03:58:06;;;;;;;;;;;28.50;59.70;;;;;;5107150;27;43010;-78
2023/06/23 04:00:33;;;;;;;;;;;28.40;59.60;;;;;;5104596;27;43848;-79
2023/06/23 04:02:59;;;;;;;;;;;28.50;60.10;;;;;;5106986;27;42833;-80
2023/06/23 04:05:26;;;;;;;;;;;28.40;60.50;;;;;;5104687;27;45788;-79
2023/06/23 04:07:52;;;;;;;;;;;28.40;59.40;;;;;;5106201;27;43089;-79
2023/06/23 04:10:18;;;;;;;;;;;28.40;59.40;;;;;;5106955;27;42802;-79
2023/06/23 04:12:46;;;;;;;;;;;28.40;59.30;;;;;;5106512;27;42897;-79
2023/06/23 04:15:13;;;;;;;;;;;28.30;59.70;;;;;;5106681;27;42960;-79
2023/06/23 04:17:41;;;;;;;;;;;28.30;59.30;;;;;;5105871;27;43004;-80
2023/06/23 04:20:07;;;;;;;;;;;28.40;59.30;;;;;;5106802;27;43568;-79
2023/06/23 04:22:34;;;;;;;;;;;28.40;59.20;;;;;;5106422;27;42988;-78
2023/06/23 04:25:00;;;;;;;;;;;28.30;59.10;;;;;;5105283;27;43665;-78
2023/06/23 04:27:27;;;;;;;;;;;28.30;59.60;;;;;;5105555;27;43021;-79
2023/06/23 04:29:53;;;;;;;;;;;28.40;59.20;;;;;;5103629;27;42920;-76
2023/06/23 04:32:19;;;;;;;;;;;28.40;59.10;;;;;;5101771;27;42951;-77
2023/06/23 04:34:45;;;;;;;;;;;28.40;59.50;;;;;;5102726;27;43760;-76
2023/06/23 04:37:16;;;;;;;;;;;28.40;59.40;;;;;;5103720;27;43150;-76
2023/06/23 04:39:41;;;;;;;;;;;28.50;59.40;;;;;;5105224;27;43009;-77
2023/06/23 04:42:09;;;;;;;;;;;28.50;59.40;;;;;;5106093;27;42964;-76
2023/06/23 04:44:37;;;;;;;;;;;28.50;59.30;;;;;;5104591;27;43783;-75
2023/06/23 04:47:03;;;;;;;;;;;28.60;59.70;;;;;;5104853;27;43050;-76
2023/06/23 04:49:31;;;;;;;;;;;28.50;58.60;;;;;;5107742;27;44119;-77
2023/06/23 04:51:58;;;;;;;;;;;28.50;59.20;;;;;;5102361;27;43154;-77
2023/06/23 04:54:31;;;;;;;;;;;28.50;59.20;;;;;;5103052;27;42963;-77
2023/06/23 04:57:01;;;;;;;;;;;28.50;59.10;;;;;;5103794;27;42965;-76
2023/06/23 04:59:30;;;;;;;;;;;28.40;59.20;;;;;;5103567;27;43414;-76
2023/06/23 05:01:57;;;;;;;;;;;28.40;58.70;;;;;;5104486;27;44734;-77
2023/06/23 05:04:22;;;;;;;;;;;28.40;59.20;;;;;;5101554;27;43134;-77
2023/06/23 05:06:49;;;;;;;;;;;28.50;59.30;;;;;;5098848;27;43385;-76
2023/06/23 05:09:15;;;;;;;;;;;28.50;59.30;;;;;;5103963;27;43194;-77
2023/06/23 05:11:42;;;;;;;;;;;28.40;58.80;;;;;;5104143;27;42951;-77
2023/06/23 05:14:08;;;;;;;;;;;28.50;59.30;;;;;;5104299;27;43939;-76
2023/06/23 05:16:35;;;;;;;;;;;28.50;59.20;;;;;;5105702;27;42833;-77
2023/06/23 05:19:01;;;;;;;;;;;28.50;58.70;;;;;;5105525;27;43054;-78
2023/06/23 05:21:27;;;;;;;;;;;28.50;59.20;;;;;;5106213;27;42933;-77
2023/06/23 05:23:54;;;;;;;;;;;28.50;58.80;;;;;;5106043;27;43386;-78
2023/06/23 05:26:20;;;;;;;;;;;28.50;58.80;;;;;;5106018;27;42885;-77
2023/06/23 05:28:47;;;;;;;;;;;28.50;59.30;;;;;;5102578;27;43991;-77
2023/06/23 05:31:13;;;;;;;;;;;28.50;58.80;;;;;;5099630;27;42948;-78
2023/06/23 05:33:40;;;;;;;;;;;28.60;59.30;;;;;;5098997;27;44175;-77
2023/06/23 05:36:10;;;;;;;;;;;28.50;59.10;;;;;;5104320;27;43137;-78
2023/06/23 05:38:36;;;;;;;;;;;28.50;58.70;;;;;;5105011;27;42973;-78
2023/06/23 05:41:02;;;;;;;;;;;28.60;59.20;;;;;;5105340;27;42934;-78
2023/06/23 05:43:27;;;;;;;;;;;28.60;59.10;;;;;;5105070;27;42945;-78
2023/06/23 05:45:53;;;;;;;;;;;28.60;59.10;;;;;;5104566;27;42940;-77
2023/06/23 05:48:28;;;;;;;;;;;28.70;58.60;;;;;;5104840;27;43672;-76
2023/06/23 05:50:58;;;;;;;;;;;28.40;58.30;;;;;;5102259;27;43066;-77
2023/06/23 05:53:25;;;;;;;;;;;28.70;58.90;;;;;;5104147;27;43703;-75
2023/06/23 05:55:53;;;;;;;;;;;28.60;58.90;;;;;;5105210;27;43035;-76
2023/06/23 05:58:22;;;;;;;;;;;28.60;58.90;;;;;;5102545;27;43036;-77
2023/06/23 06:00:52;;;;;;;;;;;28.60;58.50;;;;;;5098603;27;43052;-76
2023/06/23 06:03:20;;;;;;;;;;;28.70;59.10;;;;;;5105154;27;43902;-76
2023/06/23 06:05:47;;;;;;;;;;;28.70;59.00;;;;;;5105233;27;42869;-77
2023/06/23 06:08:14;;;;;;;;;;;28.70;59.00;;;;;;5102851;27;43490;-77
2023/06/23 06:10:41;;;;;;;;;;;28.70;58.90;;;;;;5104796;27;42929;-76
2023/06/23 06:13:07;;;;;;;;;;;28.80;59.00;;;;;;5105061;27;43391;-77
2023/06/23 06:15:33;;;;;;;;;;;28.80;59.00;;;;;;5105396;27;42985;-77
2023/06/23 06:18:01;;;;;;;;;;;28.70;58.50;;;;;;5099235;27;43229;-77
2023/06/23 06:20:27;;;;;;;;;;;28.80;58.50;;;;;;5098504;27;42932;-77
2023/06/23 06:22:53;;;;;;;;;;;28.80;58.90;;;;;;5100315;27;43457;-76
2023/06/23 06:25:19;;;;;;;;;;;28.80;58.50;;;;;;5108412;27;42911;-77
2023/06/23 06:27:46;;;;;;;;;;;28.80;58.60;;;;;;5108508;27;42901;-76
2023/06/23 06:30:12;;;;;;;;;;;28.80;58.60;;;;;;5106506;27;42812;-77
2023/06/23 06:32:38;;;;;;;;;;;28.80;59.10;;;;;;5107540;27;43617;-77
2023/06/23 06:35:05;;;;;;;;;;;28.80;58.80;;;;;;5120141;27;42903;-78
2023/06/23 06:37:35;;;;;;;;;;;28.80;59.20;;;;;;5108563;27;42869;-78
2023/06/23 06:40:03;;;;;;;;;;;28.80;59.30;;;;;;5106724;27;43253;-79
2023/06/23 06:42:29;;;;;;;;;;;28.80;58.90;;;;;;5108133;27;43408;-79
2023/06/23 06:44:54;;;;;;;;;;;28.80;59.00;;;;;;5097410;27;42988;-78
2023/06/23 06:47:20;;;;;;;;;;;28.80;59.40;;;;;;5107779;27;42919;-77
2023/06/23 06:49:47;;;;;;;;;;;28.80;59.40;;;;;;5108007;27;42968;-79
2023/06/23 06:52:13;;;;;;;;;;;28.80;59.00;;;;;;5106931;27;42965;-78
2023/06/23 06:54:39;;;;;;;;;;;28.80;59.50;;;;;;5106703;27;42878;-78
2023/06/23 06:57:05;;;;;;;;;;;28.80;59.00;;;;;;5107169;27;43805;-79
2023/06/23 06:59:31;;;;;;;;;;;28.80;59.50;;;;;;5107134;27;42813;-78
2023/06/23 07:01:57;;;;;;;;;;;28.90;59.60;;;;;;5107593;27;43315;-78
2023/06/23 07:04:23;;;;;;;;;;;28.80;59.50;;;;;;5107654;27;42912;-77
2023/06/23 07:06:52;;;;;;;;;;;28.90;59.20;;;;;;5106062;27;43137;-78
2023/06/23 07:09:18;;;;;;;;;;;28.80;59.60;;;;;;5108193;27;42952;-78
2023/06/23 07:11:46;;;;;;;;;;;28.80;59.60;;;;;;5107410;27;42893;-78
2023/06/23 07:14:11;;;;;;;;;;;28.80;59.10;;;;;;5108030;27;42853;-78
2023/06/23 07:16:37;;;;;;;;;;;28.80;59.60;;;;;;5108087;27;44040;-78
2023/06/23 07:19:02;;;;;;;;;;;28.90;59.70;;;;;;5108445;27;42992;-79
2023/06/23 07:21:28;;;;;;;;;;;28.90;59.60;;;;;;5108137;27;42923;-78
2023/06/23 07:23:53;;;;;;;;;;;28.80;59.10;;;;;;5108427;27;42892;-79
2023/06/23 07:26:19;;;;;;;;;;;28.90;59.60;;;;;;5108512;27;44048;-78
2023/06/23 07:28:44;;;;;;;;;;;28.90;59.70;;;;;;5108223;27;42773;-78
2023/06/23 07:31:10;;;;;;;;;;;28.80;59.10;;;;;;5107985;27;42806;-79
2023/06/23 07:33:35;;;;;;;;;;;28.90;59.70;;;;;;5108257;27;42872;-78
2023/06/23 07:36:01;;;;;;;;;;;28.90;59.70;;;;;;5105455;27;45181;-79
2023/06/23 07:38:27;;;;;;;;;;;28.90;59.70;;;;;;5108094;27;42854;-79
2023/06/23 07:40:53;;;;;;;;;;;28.90;59.70;;;;;;5108222;27;42981;-79
2023/06/23 07:43:20;;;;;;;;;;;28.90;59.70;;;;;;5108423;27;42935;-78
2023/06/23 07:45:45;;;;;;;;;;;28.90;59.70;;;;;;5107386;27;43558;-79
2023/06/23 07:48:11;;;;;;;;;;;28.90;59.20;;;;;;5107666;27;42810;-79
2023/06/23 07:50:36;;;;;;;;;;;28.90;59.20;;;;;;5107187;27;42905;-78
2023/06/23 07:53:02;;;;;;;;;;;28.90;59.70;;;;;;5107892;27;42761;-78
2023/06/23 07:55:28;;;;;;;;;;;28.90;59.20;;;;;;5107878;27;42847;-78
2023/06/23 07:57:53;;;;;;;;;;;28.90;59.20;;;;;;5108106;27;42892;-79
2023/06/23 08:00:19;;;;;;;;;;;28.90;59.20;;;;;;5107534;27;43470;-79
2023/06/23 08:02:44;;;;;;;;;;;28.90;59.60;;;;;;5108100;27;42944;-79
2023/06/23 08:05:10;;;;;;;;;;;28.90;59.10;;;;;;5107344;27;42862;-79
2023/06/23 08:07:35;;;;;;;;;;;29.00;59.20;;;;;;5107367;27;42925;-79
2023/06/23 08:10:01;;;;;;;;;;;28.90;59.60;;;;;;5107351;27;42970;-79
2023/06/23 08:12:27;;;;;;;;;;;29.00;59.60;;;;;;5107771;27;42913;-79
2023/06/23 08:14:52;;;;;;;;;;;29.00;59.60;;;;;;5107046;27;43585;-79
2023/06/23 08:17:18;;;;;;;;;;;28.90;59.10;;;;;;5107025;27;43139;-79
2023/06/23 08:19:43;;;;;;;;;;;28.90;59.10;;;;;;5106982;27;43190;-79
2023/06/23 08:22:09;;;;;;;;;;;28.90;59.10;;;;;;5106760;27;42971;-78
2023/06/23 08:24:35;;;;;;;;;;;29.00;59.60;;;;;;5107047;27;42872;-78
2023/06/23 08:27:00;;;;;;;;;;;29.00;59.10;;;;;;5107250;27;42980;-79
2023/06/23 08:29:26;;;;;;;;;;;29.00;59.10;;;;;;5107036;27;42866;-79
2023/06/23 08:31:51;;;;;;;;;;;29.00;59.10;;;;;;5107483;27;42990;-79
2023/06/23 08:34:18;;;;;;;;;;;29.00;59.60;;;;;;5107211;27;42786;-78
2023/06/23 08:36:44;;;;;;;;;;;29.00;59.50;;;;;;5107041;27;42882;-78
2023/06/23 08:39:10;;;;;;;;;;;29.00;59.50;;;;;;5106756;27;42989;-79
2023/06/23 08:41:38;;;;;;;;;;;29.00;59.00;;;;;;5106915;27;42914;-79
2023/06/23 08:44:04;;;;;;;;;;;29.00;59.00;;;;;;5106916;27;43049;-78
2023/06/23 08:46:31;;;;;;;;;;;29.00;59.00;;;;;;5105613;27;42882;-78
2023/06/23 08:49:01;;;;;;;;;;;29.00;59.00;;;;;;5106716;27;44099;-78
2023/06/23 08:51:27;;;;;;;;;;;29.00;59.00;;;;;;5106602;27;42934;-78
2023/06/23 08:53:52;;;;;;;;;;;29.00;59.00;;;;;;5106169;27;43949;-79
2023/06/23 08:56:18;;;;;;;;;;;29.10;59.00;;;;;;5106507;27;42996;-78
2023/06/23 08:58:44;;;;;;;;;;;29.10;59.00;;;;;;5106896;27;42881;-78
2023/06/23 09:01:09;;;;;;;;;;;29.00;59.50;;;;;;5106764;27;42860;-78
2023/06/23 09:03:35;;;;;;;;;;;29.00;59.40;;;;;;5106730;27;43039;-79
2023/06/23 09:06:00;;;;;;;;;;;29.10;59.50;;;;;;5106486;27;42976;-78
2023/06/23 09:08:26;;;;;;;;;;;29.00;59.40;;;;;;5106996;27;43504;-78
2023/06/23 09:10:52;;;;;;;;;;;29.10;59.00;;;;;;5106241;27;43051;-79
2023/06/23 09:13:24;;;;;;;;;;;29.10;59.00;;;;;;5105965;27;43430;-79
2023/06/23 09:15:50;;;;;;;;;;;29.10;59.00;;;;;;5105843;27;42972;-79
2023/06/23 09:18:16;;;;;;;;;;;29.10;58.90;;;;;;5104313;27;44744;-78
2023/06/23 09:20:49;;;;;;;;;;;29.10;59.40;;;;;;5105968;27;43070;-79
2023/06/23 09:23:24;;;;;;;;;;;29.10;58.90;;;;;;5106032;27;42866;-78
2023/06/23 09:25:50;;;;;;;;;;;29.10;59.40;;;;;;5106798;27;42881;-79
2023/06/23 09:28:29;;;;;;;;;;;29.00;58.90;;;;;;5106193;27;42993;-79
2023/06/23 09:30:56;;;;;;;;;;;29.10;58.90;;;;;;5104449;27;43068;-79
2023/06/23 09:33:22;;;;;;;;;;;29.10;58.90;;;;;;5103847;27;43552;-78
2023/06/23 09:35:56;;;;;;;;;;;29.10;59.40;;;;;;5106372;27;42978;-78
2023/06/23 09:38:23;;;;;;;;;;;29.10;58.90;;;;;;5105854;27;42951;-79
2023/06/23 09:41:06;;;;;;;;;;;29.10;58.90;;;;;;5104824;27;42960;-78
2023/06/23 09:43:36;;;;;;;;;;;29.10;58.90;;;;;;5104483;27;44967;-78
2023/06/23 09:46:05;;;;;;;;;;;29.10;58.90;;;;;;5105728;27;43003;-78
2023/06/23 09:48:32;;;;;;;;;;;29.10;58.90;;;;;;5105903;27;42822;-79
2023/06/23 09:51:01;;;;;;;;;;;29.10;58.90;;;;;;5106022;27;42948;-78
2023/06/23 09:53:30;;;;;;;;;;;29.10;58.90;;;;;;5105371;27;43887;-79
2023/06/23 09:55:55;;;;;;;;;;;29.10;58.90;;;;;;5105704;27;42897;-79
2023/06/23 09:58:21;;;;;;;;;;;29.10;58.90;;;;;;5105262;27;42983;-78
2023/06/23 10:00:47;;;;;;;;;;;29.10;58.90;;;;;;5103887;27;42973;-78
2023/06/23 10:03:12;;;;;;;;;;;29.10;58.90;;;;;;5105328;27;43026;-78
2023/06/23 10:05:38;;;;;;;;;;;29.10;58.90;;;;;;5105203;27;42841;-78
2023/06/23 10:08:07;;;;;;;;;;;29.10;58.80;;;;;;5105034;27;42834;-78
2023/06/23 10:10:33;;;;;;;;;;;29.10;58.80;;;;;;5105550;27;43046;-78
2023/06/23 10:12:59;;;;;;;;;;;29.20;58.80;;;;;;5105646;27;43050;-79
2023/06/23 10:15:25;;;;;;;;;;;29.20;58.80;;;;;;5106020;27;42953;-78
2023/06/23 10:17:51;;;;;;;;;;;29.20;59.30;;;;;;5105468;27;43026;-78
2023/06/23 10:20:16;;;;;;;;;;;29.20;59.30;;;;;;5105354;27;43007;-76
2023/06/23 10:22:43;;;;;;;;;;;29.20;58.80;;;;;;5105274;27;43403;-79
2023/06/23 10:25:10;;;;;;;;;;;29.10;58.80;;;;;;5105508;27;43098;-77
2023/06/23 10:27:36;;;;;;;;;;;29.10;57.20;;;;;;5104556;27;42909;-77
2023/06/23 10:30:02;;;;;;;;;;;29.10;56.00;;;;;;5104972;27;42913;-78
2023/06/23 10:32:30;;;;;;;;;;;29.00;55.90;;;;;;5104857;27;43848;-76
2023/06/23 10:34:57;;;;;;;;;;;28.90;55.20;;;;;;5105566;27;43007;-78
2023/06/23 10:37:23;;;;;;;;;;;28.90;55.00;;;;;;5098397;27;44674;-75
2023/06/23 10:40:01;;;;;;;;;;;28.80;55.20;;;;;;5102532;27;43070;-75
2023/06/23 10:42:28;;;;;;;;;;;28.80;55.30;;;;;;5104074;27;42912;-76
2023/06/23 10:44:54;;;;;;;;;;;28.80;55.50;;;;;;5104625;27;42921;-75
2023/06/23 10:47:19;;;;;;;;;;;28.80;55.70;;;;;;5104820;27;43579;-75
2023/06/23 10:49:45;;;;;;;;;;;28.80;56.00;;;;;;5103055;27;42897;-76
2023/06/23 10:52:11;;;;;;;;;;;28.70;56.20;;;;;;5104277;27;42955;-76
2023/06/23 10:54:37;;;;;;;;;;;28.70;56.50;;;;;;5105016;27;42858;-75
2023/06/23 10:57:10;;;;;;;;;;;28.70;56.50;;;;;;5104044;27;43613;-78
2023/06/23 10:59:38;;;;;;;;;;;28.70;56.70;;;;;;5102345;27;42979;-78
2023/06/23 11:02:04;;;;;;;;;;;28.70;56.70;;;;;;5099420;27;43481;-82
2023/06/23 11:04:31;;;;;;;;;;;28.80;57.40;;;;;;5103869;27;42912;-82
2023/06/23 11:07:04;;;;;;;;;;;28.80;57.10;;;;;;5103799;27;43401;-79
2023/06/23 11:09:54;;;;;;;;;;;28.80;57.20;;;;;;5103959;27;42923;-78
2023/06/23 11:12:38;;;;;;;;;;;28.80;56.90;;;;;;5096666;27;43582;-78
2023/06/23 11:15:10;;;;;;;;;;;28.80;57.30;;;;;;5105992;27;43039;-82
2023/06/23 11:17:43;;;;;;;;;;;28.70;56.80;;;;;;5104973;27;43007;-79
2023/06/23 11:20:11;;;;;;;;;;;26.60;55.60;;;;;;5104330;27;42884;-80
2023/06/23 11:22:51;;;;;;;;;;;28.70;57.20;;;;;;5107309;27;43027;-78
2023/06/23 11:25:25;;;;;;;;;;;28.70;57.60;;;;;;5103446;27;42933;-78
2023/06/23 11:28:09;;;;;;;;;;;28.70;56.90;;;;;;5106058;27;42957;-77
2023/06/23 11:30:50;;;;;;;;;;;28.70;56.90;;;;;;5106625;27;42964;-78
2023/06/23 11:33:28;;;;;;;;;;;28.80;57.20;;;;;;5103796;27;43947;-78
2023/06/23 11:35:54;;;;;;;;;;;28.70;58.10;;;;;;5103911;27;43288;-80
2023/06/23 11:38:20;;;;;;;;;;;28.80;58.30;;;;;;5106240;27;43033;-76
2023/06/23 11:40:46;;;;;;;;;;;28.70;58.20;;;;;;5102688;27;42900;-77
2023/06/23 11:43:14;;;;;;;;;;;28.80;58.80;;;;;;5106120;27;42980;-77
2023/06/23 11:45:44;;;;;;;;;;;28.60;59.10;;;;;;5106978;27;43061;-76
2023/06/23 11:48:10;;;;;;;;;;;28.60;59.20;;;;;;5095443;27;43098;-85
2023/06/23 11:50:36;;;;;;;;;;;28.60;59.20;;;;;;5104956;27;43155;-79
2023/06/23 11:53:01;;;;;;;;;;;28.60;59.30;;;;;;5105456;27;43414;-75
2023/06/23 11:55:27;;;;;;;;;;;28.50;59.30;;;;;;5106322;27;42967;-75
2023/06/23 11:57:53;;;;;;;;;;;28.40;59.30;;;;;;5105901;27;43975;-79
2023/06/23 12:00:21;;;;;;;;;;;28.60;60.00;;;;;;5101775;27;43048;-77
2023/06/23 12:02:49;;;;;;;;;;;28.50;59.40;;;;;;5100103;27;44022;-76
2023/06/23 12:05:15;;;;;;;;;;;28.50;59.40;;;;;;5102573;27;43058;-81
2023/06/23 12:07:41;;;;;;;;;;;28.50;59.40;;;;;;5105280;27;43510;-76
2023/06/23 12:10:07;;;;;;;;;;;28.50;59.50;;;;;;5108301;27;43302;-76
2023/06/23 12:12:33;;;;;;;;;;;28.50;59.60;;;;;;5116249;27;43073;-75
2023/06/23 12:15:00;;;;;;;;;;;28.50;60.00;;;;;;5115793;27;43603;-75
2023/06/23 12:17:25;;;;;;;;;;;28.50;59.70;;;;;;5105066;27;43994;-75
2023/06/23 12:19:51;;;;;;;;;;;28.60;59.70;;;;;;5106472;27;42972;-75
2023/06/23 12:22:17;;;;;;;;;;;28.60;60.10;;;;;;5106714;27;42815;-79
2023/06/23 12:24:43;;;;;;;;;;;28.60;59.70;;;;;;5106450;27;43117;-85
2023/06/23 12:27:12;;;;;;;;;;;28.60;59.50;;;;;;5106113;27;42903;-77
2023/06/23 12:29:38;;;;;;;;;;;28.60;59.90;;;;;;5106475;27;43100;-75
2023/06/23 12:32:04;;;;;;;;;;;28.70;60.00;;;;;;5107286;27;42915;-81
2023/06/23 12:34:36;;;;;;;;;;;28.60;59.20;;;;;;5107199;27;43036;-81
2023/06/23 12:37:03;;;;;;;;;;;28.60;59.10;;;;;;5108871;27;45242;-79
2023/06/23 12:39:29;;;;;;;;;;;28.70;59.00;;;;;;5111472;27;43040;-78
2023/06/23 12:41:56;;;;;;;;;;;28.70;58.70;;;;;;5107079;27;43440;-82
2023/06/23 12:44:25;;;;;;;;;;;28.70;59.20;;;;;;5103658;27;43075;-78
2023/06/23 12:46:52;;;;;;;;;;;28.70;58.60;;;;;;5104543;27;43769;-79
2023/06/23 12:49:18;;;;;;;;;;;28.70;58.50;;;;;;5104128;27;43045;-78
2023/06/23 12:51:46;;;;;;;;;;;28.70;58.40;;;;;;5106494;27;43075;-80
2023/06/23 12:54:11;;;;;;;;;;;28.70;58.30;;;;;;5105062;27;42934;-78
2023/06/23 12:56:37;;;;;;;;;;;28.80;58.30;;;;;;5103829;27;43033;-87
2023/06/23 12:59:02;;;;;;;;;;;28.80;58.30;;;;;;5105728;27;42994;-80
2023/06/23 13:01:28;;;;;;;;;;;28.70;58.20;;;;;;5103935;27;44328;-83
2023/06/23 13:03:53;;;;;;;;;;;28.80;58.20;;;;;;5105147;27;43074;-81
2023/06/23 13:06:19;;;;;;;;;;;28.80;58.20;;;;;;5105457;27;43777;-79
2023/06/23 13:08:44;;;;;;;;;;;28.80;58.00;;;;;;5105998;27;43051;-83
2023/06/23 13:11:10;;;;;;;;;;;28.80;58.50;;;;;;5116071;27;43648;-82
2023/06/23 13:13:35;;;;;;;;;;;28.80;57.80;;;;;;5114298;27;42782;-88
2023/06/23 13:16:01;;;;;;;;;;;28.80;57.70;;;;;;5109576;27;43310;-79
2023/06/23 13:18:26;;;;;;;;;;;28.80;58.10;;;;;;5111366;27;42896;-79
2023/06/23 13:20:52;;;;;;;;;;;28.80;57.60;;;;;;5113616;27;42957;-77
2023/06/23 13:23:18;;;;;;;;;;;28.90;57.50;;;;;;5111963;27;43101;-78
2023/06/23 13:25:43;;;;;;;;;;;28.80;57.50;;;;;;5105413;27;44441;-77
2023/06/23 13:28:09;;;;;;;;;;;28.80;57.10;;;;;;5099095;27;42946;-75
2023/06/23 13:30:35;;;;;;;;;;;28.80;56.90;;;;;;5106077;27;42955;-76
2023/06/23 13:33:00;;;;;;;;;;;28.80;56.10;;;;;;5103783;27;43198;-79
2023/06/23 13:35:26;;;;;;;;;;;28.80;56.00;;;;;;5109601;27;43852;-76
2023/06/23 13:37:55;;;;;;;;;;;28.80;55.80;;;;;;5108965;27;42780;-77
2023/06/23 13:40:21;;;;;;;;;;;28.80;55.50;;;;;;5126566;27;43676;-77
2023/06/23 13:42:47;;;;;;;;;;;28.80;54.70;;;;;;5101332;27;42983;-75
2023/06/23 13:45:12;;;;;;;;;;;28.70;54.40;;;;;;5103864;27;43016;-75
2023/06/23 13:47:38;;;;;;;;;;;28.80;54.20;;;;;;5105060;27;42980;-75
2023/06/23 13:50:11;;;;;;;;;;;28.80;54.30;;;;;;5105783;27;42928;-75
2023/06/23 13:52:40;;;;;;;;;;;28.80;54.50;;;;;;5099715;27;43039;-77
2023/06/23 13:55:07;;;;;;;;;;;28.80;54.70;;;;;;5101509;27;44696;-78
2023/06/23 13:57:32;;;;;;;;;;;28.80;54.90;;;;;;5103599;27;43004;-82
2023/06/23 13:59:58;;;;;;;;;;;28.90;55.90;;;;;;5100481;27;43352;-76
2023/06/23 14:02:24;;;;;;;;;;;28.80;55.90;;;;;;5097997;27;42955;-85
2023/06/23 14:04:49;;;;;;;;;;;28.90;56.60;;;;;;5104739;27;42995;-77
2023/06/23 14:07:15;;;;;;;;;;;28.90;56.30;;;;;;5104532;27;42969;-81
2023/06/23 14:09:40;;;;;;;;;;;28.90;57.00;;;;;;5104681;27;43578;-78
2023/06/23 14:12:06;;;;;;;;;;;28.90;56.90;;;;;;5104108;27;42937;-81
2023/06/23 14:14:32;;;;;;;;;;;28.90;57.00;;;;;;5101496;27;44460;-77
2023/06/23 14:16:57;;;;;;;;;;;28.90;57.20;;;;;;5104676;27;43103;-85